»·PEaware :: AWE2180 KBUR-KPHX

AWE2180 :: KBUR-KPHX

FLIGHT INFORMATION

Flight Status: Arrived
Operator:
US Airways
More flights by this operator :: More flights under this callsign
Pilot: Jim M. (18055)
Aircraft: BOEING 737-300
(B733)
More flights by this aircraft type
Origin: KBUR Bob Hope-Burbank
United States
Destination: KPHX Phoenix Sky Harbor Intl
United States
More flights between these airports :: More routes between these airports
Route: +SLAPP1 HEC PRFUM WOTRO BRUSR1
File this flight plan on PilotEdge
Remarks:
Altitude:
(Current/Filed)
33,000ft
Speed:
(Current/Filed)
450kts
Departed: 05-Sep-18 10:40 AM
Arrived: 05-Sep-18 11:53 AM
Distance/Time
Traveled:
320nm/1:13
Distance/Time
To Go:
Arrived

Flight Plot

Page will automatically refresh every two minutes.

Flight plan parsing failed; only flown route is shown


Map Options




Map Legend


Flown Route
Filed Route
Departure Airport
Arrival Airport
Navaid (VOR, NDB)
Fix

Horizontal Profiles

Position Reports

Time Latitude Longitude Heading Altitude Ground
Speed
05-Sep-18 10:04 34.196771 -118.351466 179 699ft 0kts
05-Sep-18 10:05 34.196771 -118.351466 179 699ft 0kts
05-Sep-18 10:06 34.196771 -118.351466 179 699ft 0kts
05-Sep-18 10:07 34.196771 -118.351466 179 699ft 0kts
05-Sep-18 10:08 34.196771 -118.351466 179 699ft 0kts
05-Sep-18 10:09 34.196771 -118.351466 179 699ft 0kts
05-Sep-18 10:10 34.196771 -118.351466 179 699ft 0kts
05-Sep-18 10:11 34.196771 -118.351466 179 699ft 0kts
05-Sep-18 10:12 34.196771 -118.351466 179 699ft 0kts
05-Sep-18 10:13 34.196771 -118.351466 179 699ft 0kts
05-Sep-18 10:14 34.196771 -118.351466 179 699ft 0kts
05-Sep-18 10:15 34.196771 -118.351466 179 699ft 0kts
05-Sep-18 10:16 34.196771 -118.351466 179 699ft 0kts
05-Sep-18 10:17 34.196771 -118.351466 179 699ft 0kts
05-Sep-18 10:18 34.196771 -118.351466 179 699ft 0kts
05-Sep-18 10:19 34.196771 -118.351466 179 699ft 0kts
05-Sep-18 10:20 34.196771 -118.351466 179 699ft 0kts
05-Sep-18 10:21 34.196771 -118.351466 179 699ft 0kts
05-Sep-18 10:22 34.196771 -118.351466 179 699ft 0kts
05-Sep-18 10:23 34.196771 -118.351466 179 699ft 0kts
05-Sep-18 10:24 34.196771 -118.351466 179 699ft 0kts
05-Sep-18 10:25 34.196771 -118.351466 179 699ft 0kts
05-Sep-18 10:26 34.196771 -118.351466 179 699ft 0kts
05-Sep-18 10:27 34.196771 -118.351466 179 699ft 0kts
05-Sep-18 10:28 34.196771 -118.351466 179 699ft 0kts
05-Sep-18 10:29 34.197137 -118.351177 249 698ft 2kts
05-Sep-18 10:30 34.197157 -118.350722 270 698ft 0kts
05-Sep-18 10:31 34.197157 -118.350722 270 697ft 0kts
05-Sep-18 10:32 34.197157 -118.350722 270 697ft 0kts
05-Sep-18 10:33 34.197157 -118.350722 270 697ft 0kts
05-Sep-18 10:34 34.197157 -118.350722 270 697ft 0kts
05-Sep-18 10:35 34.197159 -118.350991 270 698ft 6kts
05-Sep-18 10:36 34.197914 -118.355052 330 708ft 13kts
05-Sep-18 10:37 34.201698 -118.356157 347 721ft 14kts
05-Sep-18 10:38 34.206224 -118.357412 347 741ft 17kts
05-Sep-18 10:39 34.210899 -118.358684 347 763ft 11kts
05-Sep-18 10:39 34.211496 -118.358889 334 765ft 0kts
05-Sep-18 10:40 34.212099 -118.360181 235 770ft 9kts
05-Sep-18 10:42 34.179623 -118.351932 186 1910ft 179kts
05-Sep-18 10:42 34.144929 -118.383714 222 3863ft 203kts
05-Sep-18 10:43 34.152926 -118.447644 335 6070ft 281kts
05-Sep-18 10:44 34.231936 -118.465219 352 8830ft 295kts
05-Sep-18 10:45 34.311904 -118.477910 18 8988ft 287kts
05-Sep-18 10:46 34.362077 -118.402510 52 11225ft 322kts
05-Sep-18 10:47 34.439845 -118.342784 24 14126ft 359kts
05-Sep-18 10:48 34.521380 -118.274281 41 17364ft 365kts
05-Sep-18 10:49 34.600571 -118.194959 40 19264ft 379kts
05-Sep-18 10:50 34.669647 -118.102710 71 22497ft 380kts
05-Sep-18 10:51 34.690839 -117.976901 74 25157ft 385kts
05-Sep-18 10:52 34.699736 -117.840341 80 26190ft 431kts
05-Sep-18 10:53 34.707205 -117.691906 81 27968ft 448kts
05-Sep-18 10:54 34.713181 -117.538476 81 29483ft 464kts
05-Sep-18 10:55 34.723977 -117.387888 77 31693ft 454kts
05-Sep-18 10:56 34.736871 -117.233612 78 33025ft 466kts
05-Sep-18 10:57 34.749561 -117.077268 78 33120ft 463kts
05-Sep-18 10:58 34.762045 -116.921353 79 33086ft 465kts
05-Sep-18 10:59 34.774370 -116.764738 79 33073ft 465kts
05-Sep-18 11:00 34.786221 -116.609471 79 33073ft 465kts
05-Sep-18 11:01 34.798924 -116.454335 69 33063ft 458kts
05-Sep-18 11:02 34.841165 -116.309948 64 33065ft 454kts
05-Sep-18 11:03 34.883491 -116.165532 64 33130ft 454kts
05-Sep-18 11:04 34.926169 -116.019280 65 33128ft 463kts
05-Sep-18 11:05 34.969019 -115.871570 65 33125ft 461kts
05-Sep-18 11:06 35.011342 -115.724979 66 33131ft 460kts
05-Sep-18 11:07 35.053533 -115.578077 66 33105ft 458kts
05-Sep-18 11:08 35.095470 -115.431294 66 33066ft 459kts
05-Sep-18 11:09 35.137362 -115.284591 66 33049ft 459kts
05-Sep-18 11:10 35.178908 -115.137549 67 33022ft 458kts
05-Sep-18 11:11 35.220149 -114.990905 68 33020ft 455kts
05-Sep-18 11:12 35.260942 -114.845116 68 33016ft 454kts
05-Sep-18 11:13 35.301547 -114.699234 68 33019ft 454kts
05-Sep-18 11:14 35.340075 -114.552440 78 33012ft 457kts
05-Sep-18 11:15 35.315242 -114.400599 97 33058ft 463kts
05-Sep-18 11:16 35.295560 -114.245589 97 33168ft 462kts
05-Sep-18 11:17 35.274959 -114.090341 97 33194ft 462kts
05-Sep-18 11:18 35.254159 -113.935212 97 33193ft 462kts
05-Sep-18 11:19 35.233224 -113.780629 97 33192ft 462kts
05-Sep-18 11:20 35.212046 -113.625790 97 33193ft 462kts
05-Sep-18 11:21 35.190691 -113.471184 97 32421ft 460kts
05-Sep-18 11:22 35.168379 -113.319194 109 29442ft 453kts
05-Sep-18 11:23 35.096137 -113.187152 124 29204ft 481kts
05-Sep-18 11:24 35.020777 -113.053197 123 29307ft 474kts
05-Sep-18 11:25 34.948081 -112.920438 125 28179ft 467kts
05-Sep-18 11:26 34.878542 -112.795058 125 26966ft 444kts
05-Sep-18 11:27 34.811730 -112.675124 125 26878ft 447kts
05-Sep-18 11:28 34.744459 -112.554488 125 25941ft 443kts
05-Sep-18 11:29 34.668456 -112.445969 143 23829ft 404kts
05-Sep-18 11:30 34.580005 -112.360445 142 22326ft 396kts
05-Sep-18 11:31 34.493857 -112.276104 142 20930ft 389kts
05-Sep-18 11:32 34.399439 -112.217257 169 19638ft 370kts
05-Sep-18 11:34 34.302858 -112.192863 169 17959ft 341kts
05-Sep-18 11:35 34.211768 -112.169325 168 16460ft 336kts
05-Sep-18 11:36 34.122450 -112.146251 168 14847ft 334kts
05-Sep-18 11:37 34.035035 -112.134844 164 14527ft 311kts
05-Sep-18 11:38 33.955806 -112.097371 154 12984ft 305kts
05-Sep-18 11:39 33.881598 -112.054397 157 11157ft 299kts
05-Sep-18 11:40 33.804999 -112.022788 161 9225ft 289kts
05-Sep-18 11:41 33.730171 -111.992517 161 8898ft 287kts
05-Sep-18 11:42 33.656045 -111.962577 161 8028ft 261kts
05-Sep-18 11:43 33.588504 -111.935294 161 7196ft 243kts
05-Sep-18 11:44 33.530987 -111.902766 115 7037ft 236kts
05-Sep-18 11:45 33.527692 -111.823581 90 7052ft 239kts
05-Sep-18 11:46 33.528575 -111.744535 90 7070ft 219kts
05-Sep-18 11:47 33.526769 -111.676063 120 6706ft 201kts
05-Sep-18 11:48 33.477261 -111.663467 198 5036ft 191kts
05-Sep-18 11:49 33.448914 -111.716110 241 4073ft 187kts
05-Sep-18 11:50 33.438803 -111.776164 268 4055ft 188kts
05-Sep-18 11:51 33.440535 -111.837364 268 3754ft 169kts
05-Sep-18 11:52 33.440632 -111.888995 268 2857ft 152kts
05-Sep-18 11:53 33.440755 -111.939146 269 2035ft 146kts
05-Sep-18 11:54 33.440753 -111.988281 268 1247ft 154kts
05-Sep-18 11:55 33.440479 -112.010664 223 1126ft 9kts
05-Sep-18 11:56 33.439817 -112.008565 94 1128ft 24kts
05-Sep-18 11:57 33.439787 -112.001649 89 1129ft 15kts
05-Sep-18 11:58 33.438321 -111.999946 139 1129ft 4kts
05-Sep-18 11:59 33.438302 -111.999925 136 1129ft 0kts

Navigation Log

Ident Type
Flight plan parsing failed, navigation log unavailable